Kakisa, Canada
Current Conditions -  °F | °C
As of 5:00 AM on Saturday 25 Oct 2014 (Local Time) from CYHY Reporting Station
Overcast Overcast  
Wind Chill: 19°   Ceiling: 700
Heat Index: 27°   Visibility: 15mi
Dew Point: 23°   Wind: 7mph
Humidity: 86%   Direction: 260°W
Pressure: 29.9"   Gusts: NA
Location:  60.93°N, 117.42°W
Report Text: CYHY 251100Z 26006KT 15SM OVC007 M03/M05 A2990 RMK ST8 SLP136
Loading
Personal Weather Stations






























Interactive Weather Map
Tropical Storm Tracking
New forecast layout! Learn more

10-Day Weather Forecast

Advertisements
Track Severe Weather on mobile